<?xml version="1.0" encoding="UTF-8" standalone="no" ?>
<gpx xmlns="http://www.topografix.com/GPX/1/1" xmlns:xsi="http://www.w3.org/2001/XMLSchema-instance" xsi:schemaLocation="http://www.topografix.com/GPX/1/1 http://www.topografix.com/GPX/1/1/gpx.xsd" version="1.1" creator="VisuGPX - https://www.visugpx.com">
  <metadata>
    <name>Château 1</name>
  </metadata>
  <trk>
    <name><![CDATA[12381181-chateau 1]]></name>
    <extensions>
      <line xmlns="http://www.topografix.com/GPX/gpx_style/0/2">
        <color>0000FF</color>
        <width>4</width>
      </line>
    </extensions>
    <trkseg>
      <trkpt lat="49.03217" lon="7.94917">
        <ele>157</ele>
        <time>2021-06-04T13:04:18Z</time>
      </trkpt>
      <trkpt lat="49.03223" lon="7.94929">
        <ele>157</ele>
        <time>2021-06-04T13:04:31Z</time>
      </trkpt>
      <trkpt lat="49.03235" lon="7.94924">
        <ele>158</ele>
        <time>2021-06-04T13:04:48Z</time>
      </trkpt>
      <trkpt lat="49.03239" lon="7.9491">
        <ele>158</ele>
        <time>2021-06-04T13:05:01Z</time>
      </trkpt>
      <trkpt lat="49.03245" lon="7.94901">
        <ele>158</ele>
        <time>2021-06-04T13:05:12Z</time>
      </trkpt>
      <trkpt lat="49.03265" lon="7.94904">
        <ele>158</ele>
        <time>2021-06-04T13:05:39Z</time>
      </trkpt>
      <trkpt lat="49.0335" lon="7.94601">
        <ele>161</ele>
        <time>2021-06-04T13:10:28Z</time>
      </trkpt>
      <trkpt lat="49.03357" lon="7.94586">
        <ele>161</ele>
        <time>2021-06-04T13:10:44Z</time>
      </trkpt>
      <trkpt lat="49.03376" lon="7.94498">
        <ele>159</ele>
        <time>2021-06-04T13:12:05Z</time>
      </trkpt>
      <trkpt lat="49.03376" lon="7.94484">
        <ele>159</ele>
        <time>2021-06-04T13:12:17Z</time>
      </trkpt>
      <trkpt lat="49.03368" lon="7.94477">
        <ele>160</ele>
        <time>2021-06-04T13:12:29Z</time>
      </trkpt>
      <trkpt lat="49.03361" lon="7.94464">
        <ele>160</ele>
        <time>2021-06-04T13:12:44Z</time>
      </trkpt>
      <trkpt lat="49.03357" lon="7.94448">
        <ele>161</ele>
        <time>2021-06-04T13:12:59Z</time>
      </trkpt>
      <trkpt lat="49.03354" lon="7.94396">
        <ele>163</ele>
        <time>2021-06-04T13:13:45Z</time>
      </trkpt>
      <trkpt lat="49.03362" lon="7.94368">
        <ele>164</ele>
        <time>2021-06-04T13:14:11Z</time>
      </trkpt>
      <trkpt lat="49.03366" lon="7.94304">
        <ele>165</ele>
        <time>2021-06-04T13:15:08Z</time>
      </trkpt>
      <trkpt lat="49.03369" lon="7.94291">
        <ele>165</ele>
        <time>2021-06-04T13:15:20Z</time>
      </trkpt>
      <trkpt lat="49.03378" lon="7.94283">
        <ele>165</ele>
        <time>2021-06-04T13:15:34Z</time>
      </trkpt>
      <trkpt lat="49.03387" lon="7.9427">
        <ele>165</ele>
        <time>2021-06-04T13:15:50Z</time>
      </trkpt>
      <trkpt lat="49.03411" lon="7.94198">
        <ele>166</ele>
        <time>2021-06-04T13:17:01Z</time>
      </trkpt>
      <trkpt lat="49.03443" lon="7.94124">
        <ele>164</ele>
        <time>2021-06-04T13:18:18Z</time>
      </trkpt>
      <trkpt lat="49.03451" lon="7.94115">
        <ele>164</ele>
        <time>2021-06-04T13:18:32Z</time>
      </trkpt>
      <trkpt lat="49.03488" lon="7.94085">
        <ele>163</ele>
        <time>2021-06-04T13:19:28Z</time>
      </trkpt>
      <trkpt lat="49.03525" lon="7.94049">
        <ele>163</ele>
        <time>2021-06-04T13:20:26Z</time>
      </trkpt>
      <trkpt lat="49.0356" lon="7.9402">
        <ele>164</ele>
        <time>2021-06-04T13:21:19Z</time>
      </trkpt>
      <trkpt lat="49.0356" lon="7.94003">
        <ele>164</ele>
        <time>2021-06-04T13:21:34Z</time>
      </trkpt>
      <trkpt lat="49.03567" lon="7.93975">
        <ele>165</ele>
        <time>2021-06-04T13:22:00Z</time>
      </trkpt>
      <trkpt lat="49.03568" lon="7.9396">
        <ele>165</ele>
        <time>2021-06-04T13:22:14Z</time>
      </trkpt>
      <trkpt lat="49.03581" lon="7.93935">
        <ele>165</ele>
        <time>2021-06-04T13:22:41Z</time>
      </trkpt>
      <trkpt lat="49.03589" lon="7.93906">
        <ele>165</ele>
        <time>2021-06-04T13:23:09Z</time>
      </trkpt>
      <trkpt lat="49.03589" lon="7.93846">
        <ele>169</ele>
        <time>2021-06-04T13:24:01Z</time>
      </trkpt>
      <trkpt lat="49.03585" lon="7.93818">
        <ele>171</ele>
        <time>2021-06-04T13:24:27Z</time>
      </trkpt>
      <trkpt lat="49.03572" lon="7.93797">
        <ele>172</ele>
        <time>2021-06-04T13:24:52Z</time>
      </trkpt>
      <trkpt lat="49.03551" lon="7.93746">
        <ele>175</ele>
        <time>2021-06-04T13:25:44Z</time>
      </trkpt>
      <trkpt lat="49.03544" lon="7.93736">
        <ele>176</ele>
        <time>2021-06-04T13:25:57Z</time>
      </trkpt>
      <trkpt lat="49.03518" lon="7.93714">
        <ele>178</ele>
        <time>2021-06-04T13:26:37Z</time>
      </trkpt>
      <trkpt lat="49.03512" lon="7.93702">
        <ele>179</ele>
        <time>2021-06-04T13:26:50Z</time>
      </trkpt>
      <trkpt lat="49.03503" lon="7.93693">
        <ele>180</ele>
        <time>2021-06-04T13:27:05Z</time>
      </trkpt>
      <trkpt lat="49.03462" lon="7.93632">
        <ele>183</ele>
        <time>2021-06-04T13:28:21Z</time>
      </trkpt>
      <trkpt lat="49.0341" lon="7.93539">
        <ele>188</ele>
        <time>2021-06-04T13:30:08Z</time>
      </trkpt>
      <trkpt lat="49.03375" lon="7.93468">
        <ele>194</ele>
        <time>2021-06-04T13:31:26Z</time>
      </trkpt>
      <trkpt lat="49.0336" lon="7.9343">
        <ele>197</ele>
        <time>2021-06-04T13:32:04Z</time>
      </trkpt>
      <trkpt lat="49.03357" lon="7.93416">
        <ele>198</ele>
        <time>2021-06-04T13:32:17Z</time>
      </trkpt>
      <trkpt lat="49.03312" lon="7.93353">
        <ele>203</ele>
        <time>2021-06-04T13:33:39Z</time>
      </trkpt>
      <trkpt lat="49.03303" lon="7.93327">
        <ele>205</ele>
        <time>2021-06-04T13:34:05Z</time>
      </trkpt>
      <trkpt lat="49.03316" lon="7.93304">
        <ele>205</ele>
        <time>2021-06-04T13:34:31Z</time>
      </trkpt>
      <trkpt lat="49.03318" lon="7.93291">
        <ele>205</ele>
        <time>2021-06-04T13:34:43Z</time>
      </trkpt>
      <trkpt lat="49.03317" lon="7.93277">
        <ele>205</ele>
        <time>2021-06-04T13:34:55Z</time>
      </trkpt>
      <trkpt lat="49.03304" lon="7.93236">
        <ele>207</ele>
        <time>2021-06-04T13:35:35Z</time>
      </trkpt>
      <trkpt lat="49.03297" lon="7.93233">
        <ele>207</ele>
        <time>2021-06-04T13:35:45Z</time>
      </trkpt>
      <trkpt lat="49.03294" lon="7.93219">
        <ele>208</ele>
        <time>2021-06-04T13:35:58Z</time>
      </trkpt>
      <trkpt lat="49.03284" lon="7.93194">
        <ele>209</ele>
        <time>2021-06-04T13:36:23Z</time>
      </trkpt>
      <trkpt lat="49.03275" lon="7.93153">
        <ele>211</ele>
        <time>2021-06-04T13:37:01Z</time>
      </trkpt>
      <trkpt lat="49.03277" lon="7.92972">
        <ele>224</ele>
        <time>2021-06-04T13:39:39Z</time>
      </trkpt>
      <trkpt lat="49.03281" lon="7.92945">
        <ele>226</ele>
        <time>2021-06-04T13:40:04Z</time>
      </trkpt>
      <trkpt lat="49.03289" lon="7.92917">
        <ele>228</ele>
        <time>2021-06-04T13:40:30Z</time>
      </trkpt>
      <trkpt lat="49.03306" lon="7.92883">
        <ele>232</ele>
        <time>2021-06-04T13:41:08Z</time>
      </trkpt>
      <trkpt lat="49.03305" lon="7.92868">
        <ele>234</ele>
        <time>2021-06-04T13:41:21Z</time>
      </trkpt>
      <trkpt lat="49.03292" lon="7.92831">
        <ele>237</ele>
        <time>2021-06-04T13:41:58Z</time>
      </trkpt>
      <trkpt lat="49.03285" lon="7.9282">
        <ele>237</ele>
        <time>2021-06-04T13:42:11Z</time>
      </trkpt>
      <trkpt lat="49.03284" lon="7.92806">
        <ele>238</ele>
        <time>2021-06-04T13:42:23Z</time>
      </trkpt>
      <trkpt lat="49.033" lon="7.92735">
        <ele>242</ele>
        <time>2021-06-04T13:43:29Z</time>
      </trkpt>
      <trkpt lat="49.03299" lon="7.92688">
        <ele>244</ele>
        <time>2021-06-04T13:44:10Z</time>
      </trkpt>
      <trkpt lat="49.03311" lon="7.92646">
        <ele>246</ele>
        <time>2021-06-04T13:44:50Z</time>
      </trkpt>
      <trkpt lat="49.03325" lon="7.92623">
        <ele>246</ele>
        <time>2021-06-04T13:45:18Z</time>
      </trkpt>
      <trkpt lat="49.03347" lon="7.92616">
        <ele>245</ele>
        <time>2021-06-04T13:45:48Z</time>
      </trkpt>
      <trkpt lat="49.03369" lon="7.92605">
        <ele>243</ele>
        <time>2021-06-04T13:46:19Z</time>
      </trkpt>
      <trkpt lat="49.03379" lon="7.92597">
        <ele>243</ele>
        <time>2021-06-04T13:46:34Z</time>
      </trkpt>
      <trkpt lat="49.03384" lon="7.92585">
        <ele>243</ele>
        <time>2021-06-04T13:46:46Z</time>
      </trkpt>
      <trkpt lat="49.03385" lon="7.9257">
        <ele>244</ele>
        <time>2021-06-04T13:46:59Z</time>
      </trkpt>
      <trkpt lat="49.03383" lon="7.92557">
        <ele>244</ele>
        <time>2021-06-04T13:47:11Z</time>
      </trkpt>
      <trkpt lat="49.03358" lon="7.92488">
        <ele>249</ele>
        <time>2021-06-04T13:48:20Z</time>
      </trkpt>
      <trkpt lat="49.03354" lon="7.92471">
        <ele>249</ele>
        <time>2021-06-04T13:48:36Z</time>
      </trkpt>
      <trkpt lat="49.0335" lon="7.92428">
        <ele>250</ele>
        <time>2021-06-04T13:49:14Z</time>
      </trkpt>
      <trkpt lat="49.03346" lon="7.92414">
        <ele>251</ele>
        <time>2021-06-04T13:49:27Z</time>
      </trkpt>
      <trkpt lat="49.03304" lon="7.9233">
        <ele>253</ele>
        <time>2021-06-04T13:51:00Z</time>
      </trkpt>
      <trkpt lat="49.03301" lon="7.92315">
        <ele>253</ele>
        <time>2021-06-04T13:51:13Z</time>
      </trkpt>
      <trkpt lat="49.03304" lon="7.92271">
        <ele>253</ele>
        <time>2021-06-04T13:51:52Z</time>
      </trkpt>
      <trkpt lat="49.03302" lon="7.92242">
        <ele>254</ele>
        <time>2021-06-04T13:52:18Z</time>
      </trkpt>
      <trkpt lat="49.03295" lon="7.9223">
        <ele>254</ele>
        <time>2021-06-04T13:52:32Z</time>
      </trkpt>
      <trkpt lat="49.03279" lon="7.92211">
        <ele>256</ele>
        <time>2021-06-04T13:52:59Z</time>
      </trkpt>
      <trkpt lat="49.03236" lon="7.92174">
        <ele>259</ele>
        <time>2021-06-04T13:54:05Z</time>
      </trkpt>
      <trkpt lat="49.03224" lon="7.92152">
        <ele>259</ele>
        <time>2021-06-04T13:54:30Z</time>
      </trkpt>
      <trkpt lat="49.03152" lon="7.91954">
        <ele>266</ele>
        <time>2021-06-04T13:57:48Z</time>
      </trkpt>
      <trkpt lat="49.03139" lon="7.91851">
        <ele>269</ele>
        <time>2021-06-04T13:59:19Z</time>
      </trkpt>
      <trkpt lat="49.03131" lon="7.91823">
        <ele>269</ele>
        <time>2021-06-04T13:59:46Z</time>
      </trkpt>
      <trkpt lat="49.03089" lon="7.91761">
        <ele>273</ele>
        <time>2021-06-04T14:01:04Z</time>
      </trkpt>
      <trkpt lat="49.03061" lon="7.91735">
        <ele>274</ele>
        <time>2021-06-04T14:01:48Z</time>
      </trkpt>
      <trkpt lat="49.03051" lon="7.91736">
        <ele>274</ele>
        <time>2021-06-04T14:02:01Z</time>
      </trkpt>
      <trkpt lat="49.03046" lon="7.91725">
        <ele>274</ele>
        <time>2021-06-04T14:02:13Z</time>
      </trkpt>
      <trkpt lat="49.03035" lon="7.9167">
        <ele>275</ele>
        <time>2021-06-04T14:03:03Z</time>
      </trkpt>
      <trkpt lat="49.03028" lon="7.91658">
        <ele>276</ele>
        <time>2021-06-04T14:03:17Z</time>
      </trkpt>
      <trkpt lat="49.03025" lon="7.91645">
        <ele>276</ele>
        <time>2021-06-04T14:03:29Z</time>
      </trkpt>
      <trkpt lat="49.03018" lon="7.9163">
        <ele>276</ele>
        <time>2021-06-04T14:03:46Z</time>
      </trkpt>
      <trkpt lat="49.03006" lon="7.91576">
        <ele>277</ele>
        <time>2021-06-04T14:04:35Z</time>
      </trkpt>
      <trkpt lat="49.02994" lon="7.91551">
        <ele>277</ele>
        <time>2021-06-04T14:05:02Z</time>
      </trkpt>
      <trkpt lat="49.02976" lon="7.9149">
        <ele>277</ele>
        <time>2021-06-04T14:06:01Z</time>
      </trkpt>
      <trkpt lat="49.02955" lon="7.9137">
        <ele>277</ele>
        <time>2021-06-04T14:07:50Z</time>
      </trkpt>
      <trkpt lat="49.02926" lon="7.91232">
        <ele>281</ele>
        <time>2021-06-04T14:09:56Z</time>
      </trkpt>
      <trkpt lat="49.02895" lon="7.91033">
        <ele>284</ele>
        <time>2021-06-04T14:12:55Z</time>
      </trkpt>
      <trkpt lat="49.02878" lon="7.90961">
        <ele>286</ele>
        <time>2021-06-04T14:14:02Z</time>
      </trkpt>
      <trkpt lat="49.02864" lon="7.90866">
        <ele>289</ele>
        <time>2021-06-04T14:15:28Z</time>
      </trkpt>
      <trkpt lat="49.02854" lon="7.90837">
        <ele>291</ele>
        <time>2021-06-04T14:15:56Z</time>
      </trkpt>
      <trkpt lat="49.02848" lon="7.90763">
        <ele>294</ele>
        <time>2021-06-04T14:17:02Z</time>
      </trkpt>
      <trkpt lat="49.02852" lon="7.90735">
        <ele>295</ele>
        <time>2021-06-04T14:17:27Z</time>
      </trkpt>
      <trkpt lat="49.02852" lon="7.90673">
        <ele>297</ele>
        <time>2021-06-04T14:18:21Z</time>
      </trkpt>
      <trkpt lat="49.02838" lon="7.90655">
        <ele>300</ele>
        <time>2021-06-04T14:18:45Z</time>
      </trkpt>
      <trkpt lat="49.0282" lon="7.90585">
        <ele>305</ele>
        <time>2021-06-04T14:19:51Z</time>
      </trkpt>
      <trkpt lat="49.02818" lon="7.90555">
        <ele>306</ele>
        <time>2021-06-04T14:20:17Z</time>
      </trkpt>
      <trkpt lat="49.02823" lon="7.90475">
        <ele>310</ele>
        <time>2021-06-04T14:21:28Z</time>
      </trkpt>
      <trkpt lat="49.02826" lon="7.90458">
        <ele>310</ele>
        <time>2021-06-04T14:21:43Z</time>
      </trkpt>
      <trkpt lat="49.02834" lon="7.90448">
        <ele>311</ele>
        <time>2021-06-04T14:21:57Z</time>
      </trkpt>
      <trkpt lat="49.02838" lon="7.90435">
        <ele>311</ele>
        <time>2021-06-04T14:22:10Z</time>
      </trkpt>
      <trkpt lat="49.02845" lon="7.90409">
        <ele>311</ele>
        <time>2021-06-04T14:22:34Z</time>
      </trkpt>
      <trkpt lat="49.02847" lon="7.90389">
        <ele>313</ele>
        <time>2021-06-04T14:22:52Z</time>
      </trkpt>
      <trkpt lat="49.02846" lon="7.90375">
        <ele>314</ele>
        <time>2021-06-04T14:23:04Z</time>
      </trkpt>
      <trkpt lat="49.02849" lon="7.9036">
        <ele>315</ele>
        <time>2021-06-04T14:23:18Z</time>
      </trkpt>
      <trkpt lat="49.02843" lon="7.90316">
        <ele>321</ele>
        <time>2021-06-04T14:23:57Z</time>
      </trkpt>
      <trkpt lat="49.02848" lon="7.90229">
        <ele>336</ele>
        <time>2021-06-04T14:25:14Z</time>
      </trkpt>
      <trkpt lat="49.02844" lon="7.90215">
        <ele>339</ele>
        <time>2021-06-04T14:25:27Z</time>
      </trkpt>
      <trkpt lat="49.02837" lon="7.90206">
        <ele>341</ele>
        <time>2021-06-04T14:25:39Z</time>
      </trkpt>
      <trkpt lat="49.02828" lon="7.90202">
        <ele>341</ele>
        <time>2021-06-04T14:25:52Z</time>
      </trkpt>
      <trkpt lat="49.02808" lon="7.90199">
        <ele>340</ele>
        <time>2021-06-04T14:26:19Z</time>
      </trkpt>
      <trkpt lat="49.02801" lon="7.90191">
        <ele>340</ele>
        <time>2021-06-04T14:26:30Z</time>
      </trkpt>
      <trkpt lat="49.02783" lon="7.90156">
        <ele>342</ele>
        <time>2021-06-04T14:27:09Z</time>
      </trkpt>
      <trkpt lat="49.02771" lon="7.90116">
        <ele>344</ele>
        <time>2021-06-04T14:27:48Z</time>
      </trkpt>
      <trkpt lat="49.02779" lon="7.90107">
        <ele>346</ele>
        <time>2021-06-04T14:28:01Z</time>
      </trkpt>
      <trkpt lat="49.02798" lon="7.90104">
        <ele>349</ele>
        <time>2021-06-04T14:28:26Z</time>
      </trkpt>
      <trkpt lat="49.02839" lon="7.90066">
        <ele>358</ele>
        <time>2021-06-04T14:29:30Z</time>
      </trkpt>
      <trkpt lat="49.02845" lon="7.90054">
        <ele>359</ele>
        <time>2021-06-04T14:29:44Z</time>
      </trkpt>
      <trkpt lat="49.02836" lon="7.90014">
        <ele>362</ele>
        <time>2021-06-04T14:30:21Z</time>
      </trkpt>
      <trkpt lat="49.02838" lon="7.9">
        <ele>363</ele>
        <time>2021-06-04T14:30:33Z</time>
      </trkpt>
      <trkpt lat="49.0286" lon="7.89986">
        <ele>363</ele>
        <time>2021-06-04T14:31:05Z</time>
      </trkpt>
      <trkpt lat="49.02859" lon="7.89971">
        <ele>363</ele>
        <time>2021-06-04T14:31:18Z</time>
      </trkpt>
      <trkpt lat="49.02862" lon="7.89959">
        <ele>364</ele>
        <time>2021-06-04T14:31:29Z</time>
      </trkpt>
      <trkpt lat="49.02877" lon="7.89942">
        <ele>364</ele>
        <time>2021-06-04T14:31:54Z</time>
      </trkpt>
      <trkpt lat="49.02878" lon="7.89912">
        <ele>366</ele>
        <time>2021-06-04T14:32:21Z</time>
      </trkpt>
      <trkpt lat="49.02872" lon="7.89884">
        <ele>367</ele>
        <time>2021-06-04T14:32:46Z</time>
      </trkpt>
      <trkpt lat="49.02867" lon="7.89871">
        <ele>368</ele>
        <time>2021-06-04T14:33:00Z</time>
      </trkpt>
      <trkpt lat="49.02853" lon="7.89849">
        <ele>367</ele>
        <time>2021-06-04T14:33:26Z</time>
      </trkpt>
      <trkpt lat="49.02863" lon="7.89854">
        <ele>368</ele>
        <time>2021-06-04T14:33:40Z</time>
      </trkpt>
      <trkpt lat="49.0287" lon="7.89864">
        <ele>368</ele>
        <time>2021-06-04T14:33:53Z</time>
      </trkpt>
      <trkpt lat="49.02889" lon="7.89859">
        <ele>370</ele>
        <time>2021-06-04T14:34:19Z</time>
      </trkpt>
      <trkpt lat="49.02883" lon="7.89839">
        <ele>370</ele>
        <time>2021-06-04T14:34:38Z</time>
      </trkpt>
      <trkpt lat="49.02882" lon="7.89796">
        <ele>373</ele>
        <time>2021-06-04T14:35:16Z</time>
      </trkpt>
      <trkpt lat="49.02885" lon="7.89783">
        <ele>374</ele>
        <time>2021-06-04T14:35:28Z</time>
      </trkpt>
      <trkpt lat="49.02884" lon="7.89769">
        <ele>375</ele>
        <time>2021-06-04T14:35:40Z</time>
      </trkpt>
      <trkpt lat="49.02894" lon="7.89743">
        <ele>379</ele>
        <time>2021-06-04T14:36:07Z</time>
      </trkpt>
      <trkpt lat="49.02895" lon="7.89727">
        <ele>380</ele>
        <time>2021-06-04T14:36:21Z</time>
      </trkpt>
      <trkpt lat="49.02905" lon="7.89703">
        <ele>383</ele>
        <time>2021-06-04T14:36:46Z</time>
      </trkpt>
      <trkpt lat="49.02916" lon="7.89665">
        <ele>387</ele>
        <time>2021-06-04T14:37:22Z</time>
      </trkpt>
      <trkpt lat="49.02917" lon="7.89651">
        <ele>388</ele>
        <time>2021-06-04T14:37:34Z</time>
      </trkpt>
      <trkpt lat="49.02924" lon="7.89624">
        <ele>390</ele>
        <time>2021-06-04T14:38:00Z</time>
      </trkpt>
      <trkpt lat="49.02929" lon="7.89611">
        <ele>390</ele>
        <time>2021-06-04T14:38:13Z</time>
      </trkpt>
      <trkpt lat="49.02938" lon="7.89555">
        <ele>393</ele>
        <time>2021-06-04T14:39:03Z</time>
      </trkpt>
      <trkpt lat="49.02946" lon="7.8953">
        <ele>393</ele>
        <time>2021-06-04T14:39:28Z</time>
      </trkpt>
      <trkpt lat="49.02949" lon="7.89499">
        <ele>395</ele>
        <time>2021-06-04T14:39:55Z</time>
      </trkpt>
      <trkpt lat="49.02946" lon="7.89468">
        <ele>397</ele>
        <time>2021-06-04T14:40:22Z</time>
      </trkpt>
      <trkpt lat="49.02944" lon="7.89379">
        <ele>401</ele>
        <time>2021-06-04T14:41:40Z</time>
      </trkpt>
      <trkpt lat="49.02939" lon="7.89334">
        <ele>404</ele>
        <time>2021-06-04T14:42:20Z</time>
      </trkpt>
      <trkpt lat="49.02929" lon="7.89278">
        <ele>413</ele>
        <time>2021-06-04T14:43:11Z</time>
      </trkpt>
      <trkpt lat="49.02919" lon="7.89255">
        <ele>415</ele>
        <time>2021-06-04T14:43:35Z</time>
      </trkpt>
      <trkpt lat="49.02905" lon="7.89199">
        <ele>422</ele>
        <time>2021-06-04T14:44:28Z</time>
      </trkpt>
      <trkpt lat="49.02904" lon="7.89185">
        <ele>424</ele>
        <time>2021-06-04T14:44:40Z</time>
      </trkpt>
      <trkpt lat="49.02908" lon="7.89172">
        <ele>427</ele>
        <time>2021-06-04T14:44:53Z</time>
      </trkpt>
      <trkpt lat="49.02917" lon="7.89172">
        <ele>430</ele>
        <time>2021-06-04T14:45:05Z</time>
      </trkpt>
      <trkpt lat="49.02926" lon="7.89179">
        <ele>429</ele>
        <time>2021-06-04T14:45:18Z</time>
      </trkpt>
      <trkpt lat="49.02956" lon="7.89191">
        <ele>429</ele>
        <time>2021-06-04T14:45:59Z</time>
      </trkpt>
      <trkpt lat="49.02953" lon="7.89177">
        <ele>431</ele>
        <time>2021-06-04T14:46:12Z</time>
      </trkpt>
      <trkpt lat="49.02946" lon="7.89169">
        <ele>432</ele>
        <time>2021-06-04T14:46:24Z</time>
      </trkpt>
      <trkpt lat="49.02928" lon="7.8913">
        <ele>439</ele>
        <time>2021-06-04T14:47:06Z</time>
      </trkpt>
      <trkpt lat="49.02918" lon="7.891">
        <ele>445</ele>
        <time>2021-06-04T14:47:35Z</time>
      </trkpt>
      <trkpt lat="49.02914" lon="7.89072">
        <ele>450</ele>
        <time>2021-06-04T14:48:00Z</time>
      </trkpt>
      <trkpt lat="49.02888" lon="7.8901">
        <ele>458</ele>
        <time>2021-06-04T14:49:05Z</time>
      </trkpt>
      <trkpt lat="49.02886" lon="7.88996">
        <ele>461</ele>
        <time>2021-06-04T14:49:17Z</time>
      </trkpt>
      <trkpt lat="49.0288" lon="7.88982">
        <ele>463</ele>
        <time>2021-06-04T14:49:32Z</time>
      </trkpt>
      <trkpt lat="49.02873" lon="7.88969">
        <ele>464</ele>
        <time>2021-06-04T14:49:47Z</time>
      </trkpt>
      <trkpt lat="49.02843" lon="7.88931">
        <ele>467</ele>
        <time>2021-06-04T14:50:39Z</time>
      </trkpt>
      <trkpt lat="49.02823" lon="7.88896">
        <ele>473</ele>
        <time>2021-06-04T14:51:19Z</time>
      </trkpt>
      <trkpt lat="49.02804" lon="7.88878">
        <ele>476</ele>
        <time>2021-06-04T14:51:49Z</time>
      </trkpt>
      <trkpt lat="49.02792" lon="7.88873">
        <ele>476</ele>
        <time>2021-06-04T14:52:06Z</time>
      </trkpt>
      <trkpt lat="49.02772" lon="7.88874">
        <ele>473</ele>
        <time>2021-06-04T14:52:32Z</time>
      </trkpt>
      <trkpt lat="49.02743" lon="7.88882">
        <ele>468</ele>
        <time>2021-06-04T14:53:12Z</time>
      </trkpt>
      <trkpt lat="49.027" lon="7.88887">
        <ele>462</ele>
        <time>2021-06-04T14:54:09Z</time>
      </trkpt>
      <trkpt lat="49.0268" lon="7.88885">
        <ele>460</ele>
        <time>2021-06-04T14:54:36Z</time>
      </trkpt>
      <trkpt lat="49.02661" lon="7.88875">
        <ele>458</ele>
        <time>2021-06-04T14:55:03Z</time>
      </trkpt>
      <trkpt lat="49.02644" lon="7.88852">
        <ele>456</ele>
        <time>2021-06-04T14:55:33Z</time>
      </trkpt>
      <trkpt lat="49.02611" lon="7.88799">
        <ele>456</ele>
        <time>2021-06-04T14:56:37Z</time>
      </trkpt>
      <trkpt lat="49.02584" lon="7.88747">
        <ele>460</ele>
        <time>2021-06-04T14:57:35Z</time>
      </trkpt>
      <trkpt lat="49.0255" lon="7.88698">
        <ele>456</ele>
        <time>2021-06-04T14:58:38Z</time>
      </trkpt>
      <trkpt lat="49.02514" lon="7.88652">
        <ele>450</ele>
        <time>2021-06-04T14:59:40Z</time>
      </trkpt>
      <trkpt lat="49.02489" lon="7.88602">
        <ele>445</ele>
        <time>2021-06-04T15:00:35Z</time>
      </trkpt>
      <trkpt lat="49.02482" lon="7.88557">
        <ele>443</ele>
        <time>2021-06-04T15:01:16Z</time>
      </trkpt>
      <trkpt lat="49.02488" lon="7.88539">
        <ele>441</ele>
        <time>2021-06-04T15:01:33Z</time>
      </trkpt>
      <trkpt lat="49.02496" lon="7.88532">
        <ele>441</ele>
        <time>2021-06-04T15:01:46Z</time>
      </trkpt>
      <trkpt lat="49.02489" lon="7.88507">
        <ele>438</ele>
        <time>2021-06-04T15:02:09Z</time>
      </trkpt>
      <trkpt lat="49.02495" lon="7.88495">
        <ele>436</ele>
        <time>2021-06-04T15:02:23Z</time>
      </trkpt>
      <trkpt lat="49.02489" lon="7.88485">
        <ele>435</ele>
        <time>2021-06-04T15:02:35Z</time>
      </trkpt>
      <trkpt lat="49.02468" lon="7.88472">
        <ele>435</ele>
        <time>2021-06-04T15:03:05Z</time>
      </trkpt>
      <trkpt lat="49.02459" lon="7.88469">
        <ele>435</ele>
        <time>2021-06-04T15:03:17Z</time>
      </trkpt>
      <trkpt lat="49.02446" lon="7.88447">
        <ele>433</ele>
        <time>2021-06-04T15:03:43Z</time>
      </trkpt>
      <trkpt lat="49.02437" lon="7.8842">
        <ele>430</ele>
        <time>2021-06-04T15:04:09Z</time>
      </trkpt>
      <trkpt lat="49.02434" lon="7.88401">
        <ele>427</ele>
        <time>2021-06-04T15:04:27Z</time>
      </trkpt>
      <trkpt lat="49.02419" lon="7.88361">
        <ele>421</ele>
        <time>2021-06-04T15:05:07Z</time>
      </trkpt>
      <trkpt lat="49.02403" lon="7.88287">
        <ele>415</ele>
        <time>2021-06-04T15:06:15Z</time>
      </trkpt>
      <trkpt lat="49.02385" lon="7.88249">
        <ele>415</ele>
        <time>2021-06-04T15:06:56Z</time>
      </trkpt>
      <trkpt lat="49.02363" lon="7.88148">
        <ele>411</ele>
        <time>2021-06-04T15:08:29Z</time>
      </trkpt>
      <trkpt lat="49.0236" lon="7.88099">
        <ele>409</ele>
        <time>2021-06-04T15:09:12Z</time>
      </trkpt>
      <trkpt lat="49.02362" lon="7.88067">
        <ele>406</ele>
        <time>2021-06-04T15:09:40Z</time>
      </trkpt>
      <trkpt lat="49.02352" lon="7.8802">
        <ele>408</ele>
        <time>2021-06-04T15:10:24Z</time>
      </trkpt>
      <trkpt lat="49.02348" lon="7.87976">
        <ele>409</ele>
        <time>2021-06-04T15:11:03Z</time>
      </trkpt>
      <trkpt lat="49.02347" lon="7.87961">
        <ele>409</ele>
        <time>2021-06-04T15:11:16Z</time>
      </trkpt>
      <trkpt lat="49.02353" lon="7.87883">
        <ele>403</ele>
        <time>2021-06-04T15:12:24Z</time>
      </trkpt>
      <trkpt lat="49.0235" lon="7.87808">
        <ele>398</ele>
        <time>2021-06-04T15:13:30Z</time>
      </trkpt>
      <trkpt lat="49.02325" lon="7.87705">
        <ele>394</ele>
        <time>2021-06-04T15:15:06Z</time>
      </trkpt>
      <trkpt lat="49.02312" lon="7.87667">
        <ele>390</ele>
        <time>2021-06-04T15:15:44Z</time>
      </trkpt>
      <trkpt lat="49.02276" lon="7.87614">
        <ele>390</ele>
        <time>2021-06-04T15:16:51Z</time>
      </trkpt>
      <trkpt lat="49.02268" lon="7.87607">
        <ele>391</ele>
        <time>2021-06-04T15:17:03Z</time>
      </trkpt>
      <trkpt lat="49.02252" lon="7.87575">
        <ele>391</ele>
        <time>2021-06-04T15:17:38Z</time>
      </trkpt>
      <trkpt lat="49.02239" lon="7.87506">
        <ele>385</ele>
        <time>2021-06-04T15:18:41Z</time>
      </trkpt>
      <trkpt lat="49.02229" lon="7.87478">
        <ele>385</ele>
        <time>2021-06-04T15:19:09Z</time>
      </trkpt>
      <trkpt lat="49.02217" lon="7.87403">
        <ele>384</ele>
        <time>2021-06-04T15:20:16Z</time>
      </trkpt>
      <trkpt lat="49.02217" lon="7.87389">
        <ele>384</ele>
        <time>2021-06-04T15:20:29Z</time>
      </trkpt>
      <trkpt lat="49.02224" lon="7.87357">
        <ele>381</ele>
        <time>2021-06-04T15:20:58Z</time>
      </trkpt>
      <trkpt lat="49.02239" lon="7.87335">
        <ele>376</ele>
        <time>2021-06-04T15:21:26Z</time>
      </trkpt>
      <trkpt lat="49.02248" lon="7.87305">
        <ele>375</ele>
        <time>2021-06-04T15:21:55Z</time>
      </trkpt>
      <trkpt lat="49.02262" lon="7.87274">
        <ele>374</ele>
        <time>2021-06-04T15:22:28Z</time>
      </trkpt>
      <trkpt lat="49.02271" lon="7.87261">
        <ele>373</ele>
        <time>2021-06-04T15:22:44Z</time>
      </trkpt>
      <trkpt lat="49.02283" lon="7.8723">
        <ele>373</ele>
        <time>2021-06-04T15:23:16Z</time>
      </trkpt>
      <trkpt lat="49.02292" lon="7.87184">
        <ele>374</ele>
        <time>2021-06-04T15:23:58Z</time>
      </trkpt>
      <trkpt lat="49.02291" lon="7.87069">
        <ele>374</ele>
        <time>2021-06-04T15:25:38Z</time>
      </trkpt>
      <trkpt lat="49.02278" lon="7.87021">
        <ele>375</ele>
        <time>2021-06-04T15:26:24Z</time>
      </trkpt>
      <trkpt lat="49.02267" lon="7.86996">
        <ele>376</ele>
        <time>2021-06-04T15:26:50Z</time>
      </trkpt>
      <trkpt lat="49.02239" lon="7.86953">
        <ele>380</ele>
        <time>2021-06-04T15:27:43Z</time>
      </trkpt>
      <trkpt lat="49.02232" lon="7.86937">
        <ele>379</ele>
        <time>2021-06-04T15:28:00Z</time>
      </trkpt>
      <trkpt lat="49.02224" lon="7.86928">
        <ele>380</ele>
        <time>2021-06-04T15:28:13Z</time>
      </trkpt>
      <trkpt lat="49.02189" lon="7.86862">
        <ele>374</ele>
        <time>2021-06-04T15:29:28Z</time>
      </trkpt>
      <trkpt lat="49.02173" lon="7.86843">
        <ele>371</ele>
        <time>2021-06-04T15:29:55Z</time>
      </trkpt>
      <trkpt lat="49.02136" lon="7.86811">
        <ele>368</ele>
        <time>2021-06-04T15:30:51Z</time>
      </trkpt>
      <trkpt lat="49.02107" lon="7.86796">
        <ele>368</ele>
        <time>2021-06-04T15:31:32Z</time>
      </trkpt>
      <trkpt lat="49.0209" lon="7.86774">
        <ele>364</ele>
        <time>2021-06-04T15:32:02Z</time>
      </trkpt>
      <trkpt lat="49.02085" lon="7.86761">
        <ele>362</ele>
        <time>2021-06-04T15:32:15Z</time>
      </trkpt>
      <trkpt lat="49.02079" lon="7.86731">
        <ele>362</ele>
        <time>2021-06-04T15:32:43Z</time>
      </trkpt>
      <trkpt lat="49.02079" lon="7.86717">
        <ele>362</ele>
        <time>2021-06-04T15:32:55Z</time>
      </trkpt>
      <trkpt lat="49.02084" lon="7.86688">
        <ele>361</ele>
        <time>2021-06-04T15:33:21Z</time>
      </trkpt>
      <trkpt lat="49.02092" lon="7.8668">
        <ele>361</ele>
        <time>2021-06-04T15:33:34Z</time>
      </trkpt>
      <trkpt lat="49.02099" lon="7.86668">
        <ele>360</ele>
        <time>2021-06-04T15:33:48Z</time>
      </trkpt>
      <trkpt lat="49.02112" lon="7.86627">
        <ele>363</ele>
        <time>2021-06-04T15:34:28Z</time>
      </trkpt>
      <trkpt lat="49.02124" lon="7.86601">
        <ele>364</ele>
        <time>2021-06-04T15:34:56Z</time>
      </trkpt>
      <trkpt lat="49.02134" lon="7.86558">
        <ele>366</ele>
        <time>2021-06-04T15:35:36Z</time>
      </trkpt>
      <trkpt lat="49.02148" lon="7.86537">
        <ele>365</ele>
        <time>2021-06-04T15:36:02Z</time>
      </trkpt>
      <trkpt lat="49.02164" lon="7.86495">
        <ele>365</ele>
        <time>2021-06-04T15:36:44Z</time>
      </trkpt>
      <trkpt lat="49.0217" lon="7.86452">
        <ele>365</ele>
        <time>2021-06-04T15:37:23Z</time>
      </trkpt>
      <trkpt lat="49.02168" lon="7.86405">
        <ele>366</ele>
        <time>2021-06-04T15:38:04Z</time>
      </trkpt>
      <trkpt lat="49.02173" lon="7.86393">
        <ele>365</ele>
        <time>2021-06-04T15:38:17Z</time>
      </trkpt>
      <trkpt lat="49.0218" lon="7.86384">
        <ele>364</ele>
        <time>2021-06-04T15:38:29Z</time>
      </trkpt>
      <trkpt lat="49.02181" lon="7.86355">
        <ele>363</ele>
        <time>2021-06-04T15:38:54Z</time>
      </trkpt>
      <trkpt lat="49.02158" lon="7.86298">
        <ele>363</ele>
        <time>2021-06-04T15:39:53Z</time>
      </trkpt>
      <trkpt lat="49.02147" lon="7.86254">
        <ele>360</ele>
        <time>2021-06-04T15:40:34Z</time>
      </trkpt>
      <trkpt lat="49.0214" lon="7.86241">
        <ele>359</ele>
        <time>2021-06-04T15:40:49Z</time>
      </trkpt>
      <trkpt lat="49.02132" lon="7.86233">
        <ele>359</ele>
        <time>2021-06-04T15:41:01Z</time>
      </trkpt>
      <trkpt lat="49.02113" lon="7.86199">
        <ele>357</ele>
        <time>2021-06-04T15:41:40Z</time>
      </trkpt>
      <trkpt lat="49.02109" lon="7.86185">
        <ele>356</ele>
        <time>2021-06-04T15:41:54Z</time>
      </trkpt>
      <trkpt lat="49.02102" lon="7.86174">
        <ele>355</ele>
        <time>2021-06-04T15:42:07Z</time>
      </trkpt>
      <trkpt lat="49.02082" lon="7.86158">
        <ele>353</ele>
        <time>2021-06-04T15:42:37Z</time>
      </trkpt>
      <trkpt lat="49.02075" lon="7.86147">
        <ele>353</ele>
        <time>2021-06-04T15:42:51Z</time>
      </trkpt>
      <trkpt lat="49.0206" lon="7.86104">
        <ele>351</ele>
        <time>2021-06-04T15:43:33Z</time>
      </trkpt>
      <trkpt lat="49.02056" lon="7.86072">
        <ele>349</ele>
        <time>2021-06-04T15:44:02Z</time>
      </trkpt>
      <trkpt lat="49.02044" lon="7.8602">
        <ele>346</ele>
        <time>2021-06-04T15:44:50Z</time>
      </trkpt>
      <trkpt lat="49.02029" lon="7.85981">
        <ele>345</ele>
        <time>2021-06-04T15:45:30Z</time>
      </trkpt>
      <trkpt lat="49.02016" lon="7.85956">
        <ele>346</ele>
        <time>2021-06-04T15:45:58Z</time>
      </trkpt>
      <trkpt lat="49.02013" lon="7.85943">
        <ele>346</ele>
        <time>2021-06-04T15:46:10Z</time>
      </trkpt>
      <trkpt lat="49.02008" lon="7.85827">
        <ele>348</ele>
        <time>2021-06-04T15:47:51Z</time>
      </trkpt>
      <trkpt lat="49.02001" lon="7.8578">
        <ele>352</ele>
        <time>2021-06-04T15:48:34Z</time>
      </trkpt>
      <trkpt lat="49.01999" lon="7.85737">
        <ele>354</ele>
        <time>2021-06-04T15:49:11Z</time>
      </trkpt>
      <trkpt lat="49.02002" lon="7.85705">
        <ele>355</ele>
        <time>2021-06-04T15:49:40Z</time>
      </trkpt>
      <trkpt lat="49.01999" lon="7.85692">
        <ele>355</ele>
        <time>2021-06-04T15:49:52Z</time>
      </trkpt>
      <trkpt lat="49.01999" lon="7.85677">
        <ele>355</ele>
        <time>2021-06-04T15:50:05Z</time>
      </trkpt>
      <trkpt lat="49.01992" lon="7.8565">
        <ele>356</ele>
        <time>2021-06-04T15:50:30Z</time>
      </trkpt>
      <trkpt lat="49.01989" lon="7.85605">
        <ele>357</ele>
        <time>2021-06-04T15:51:10Z</time>
      </trkpt>
      <trkpt lat="49.01889" lon="7.85282">
        <ele>358</ele>
        <time>2021-06-04T15:56:22Z</time>
      </trkpt>
      <trkpt lat="49.01869" lon="7.85208">
        <ele>359</ele>
        <time>2021-06-04T15:57:32Z</time>
      </trkpt>
      <trkpt lat="49.01854" lon="7.85163">
        <ele>359</ele>
        <time>2021-06-04T15:58:17Z</time>
      </trkpt>
      <trkpt lat="49.01845" lon="7.85123">
        <ele>358</ele>
        <time>2021-06-04T15:58:54Z</time>
      </trkpt>
      <trkpt lat="49.01777" lon="7.84978">
        <ele>350</ele>
        <time>2021-06-04T16:01:30Z</time>
      </trkpt>
      <trkpt lat="49.01776" lon="7.84964">
        <ele>350</ele>
        <time>2021-06-04T16:01:42Z</time>
      </trkpt>
      <trkpt lat="49.01825" lon="7.84952">
        <ele>354</ele>
        <time>2021-06-04T16:02:48Z</time>
      </trkpt>
      <trkpt lat="49.01854" lon="7.84938">
        <ele>357</ele>
        <time>2021-06-04T16:03:29Z</time>
      </trkpt>
      <trkpt lat="49.01888" lon="7.84913">
        <ele>359</ele>
        <time>2021-06-04T16:04:19Z</time>
      </trkpt>
      <trkpt lat="49.01931" lon="7.84868">
        <ele>362</ele>
        <time>2021-06-04T16:05:29Z</time>
      </trkpt>
      <trkpt lat="49.01941" lon="7.84864">
        <ele>363</ele>
        <time>2021-06-04T16:05:43Z</time>
      </trkpt>
      <trkpt lat="49.01949" lon="7.84856">
        <ele>363</ele>
        <time>2021-06-04T16:05:55Z</time>
      </trkpt>
      <trkpt lat="49.01964" lon="7.84816">
        <ele>363</ele>
        <time>2021-06-04T16:06:36Z</time>
      </trkpt>
      <trkpt lat="49.01991" lon="7.84767">
        <ele>362</ele>
        <time>2021-06-04T16:07:32Z</time>
      </trkpt>
      <trkpt lat="49.02054" lon="7.84706">
        <ele>359</ele>
        <time>2021-06-04T16:09:11Z</time>
      </trkpt>
      <trkpt lat="49.02078" lon="7.8467">
        <ele>358</ele>
        <time>2021-06-04T16:09:56Z</time>
      </trkpt>
      <trkpt lat="49.02091" lon="7.84646">
        <ele>356</ele>
        <time>2021-06-04T16:10:23Z</time>
      </trkpt>
      <trkpt lat="49.02116" lon="7.84609">
        <ele>354</ele>
        <time>2021-06-04T16:11:10Z</time>
      </trkpt>
      <trkpt lat="49.02133" lon="7.8459">
        <ele>354</ele>
        <time>2021-06-04T16:11:38Z</time>
      </trkpt>
      <trkpt lat="49.022" lon="7.84489">
        <ele>363</ele>
        <time>2021-06-04T16:13:44Z</time>
      </trkpt>
      <trkpt lat="49.0223" lon="7.84431">
        <ele>369</ele>
        <time>2021-06-04T16:14:48Z</time>
      </trkpt>
      <trkpt lat="49.02233" lon="7.84418">
        <ele>370</ele>
        <time>2021-06-04T16:15:00Z</time>
      </trkpt>
      <trkpt lat="49.02243" lon="7.84411">
        <ele>372</ele>
        <time>2021-06-04T16:15:15Z</time>
      </trkpt>
      <trkpt lat="49.0225" lon="7.84401">
        <ele>373</ele>
        <time>2021-06-04T16:15:28Z</time>
      </trkpt>
      <trkpt lat="49.02257" lon="7.84371">
        <ele>373</ele>
        <time>2021-06-04T16:15:56Z</time>
      </trkpt>
      <trkpt lat="49.02271" lon="7.84349">
        <ele>373</ele>
        <time>2021-06-04T16:16:23Z</time>
      </trkpt>
      <trkpt lat="49.02276" lon="7.84336">
        <ele>373</ele>
        <time>2021-06-04T16:16:36Z</time>
      </trkpt>
      <trkpt lat="49.02284" lon="7.84326">
        <ele>372</ele>
        <time>2021-06-04T16:16:50Z</time>
      </trkpt>
      <trkpt lat="49.02302" lon="7.84313">
        <ele>372</ele>
        <time>2021-06-04T16:17:16Z</time>
      </trkpt>
      <trkpt lat="49.02325" lon="7.84309">
        <ele>370</ele>
        <time>2021-06-04T16:17:47Z</time>
      </trkpt>
      <trkpt lat="49.02334" lon="7.84299">
        <ele>370</ele>
        <time>2021-06-04T16:18:02Z</time>
      </trkpt>
      <trkpt lat="49.02344" lon="7.84298">
        <ele>369</ele>
        <time>2021-06-04T16:18:15Z</time>
      </trkpt>
      <trkpt lat="49.02365" lon="7.84287">
        <ele>367</ele>
        <time>2021-06-04T16:18:45Z</time>
      </trkpt>
      <trkpt lat="49.02372" lon="7.84273">
        <ele>366</ele>
        <time>2021-06-04T16:19:00Z</time>
      </trkpt>
      <trkpt lat="49.02383" lon="7.84232">
        <ele>365</ele>
        <time>2021-06-04T16:19:39Z</time>
      </trkpt>
      <trkpt lat="49.0241" lon="7.84172">
        <ele>359</ele>
        <time>2021-06-04T16:20:43Z</time>
      </trkpt>
      <trkpt lat="49.02423" lon="7.84148">
        <ele>357</ele>
        <time>2021-06-04T16:21:10Z</time>
      </trkpt>
      <trkpt lat="49.02444" lon="7.84118">
        <ele>357</ele>
        <time>2021-06-04T16:21:48Z</time>
      </trkpt>
      <trkpt lat="49.02448" lon="7.84105">
        <ele>356</ele>
        <time>2021-06-04T16:22:01Z</time>
      </trkpt>
      <trkpt lat="49.02462" lon="7.84087">
        <ele>355</ele>
        <time>2021-06-04T16:22:25Z</time>
      </trkpt>
      <trkpt lat="49.02473" lon="7.84081">
        <ele>354</ele>
        <time>2021-06-04T16:22:41Z</time>
      </trkpt>
      <trkpt lat="49.02503" lon="7.84017">
        <ele>353</ele>
        <time>2021-06-04T16:23:50Z</time>
      </trkpt>
      <trkpt lat="49.02513" lon="7.8401">
        <ele>353</ele>
        <time>2021-06-04T16:24:05Z</time>
      </trkpt>
      <trkpt lat="49.02554" lon="7.83921">
        <ele>349</ele>
        <time>2021-06-04T16:25:40Z</time>
      </trkpt>
      <trkpt lat="49.02564" lon="7.83879">
        <ele>348</ele>
        <time>2021-06-04T16:26:19Z</time>
      </trkpt>
      <trkpt lat="49.02571" lon="7.83871">
        <ele>347</ele>
        <time>2021-06-04T16:26:31Z</time>
      </trkpt>
      <trkpt lat="49.02583" lon="7.83843">
        <ele>344</ele>
        <time>2021-06-04T16:27:00Z</time>
      </trkpt>
      <trkpt lat="49.02596" lon="7.83797">
        <ele>339</ele>
        <time>2021-06-04T16:27:44Z</time>
      </trkpt>
      <trkpt lat="49.02615" lon="7.83575">
        <ele>323</ele>
        <time>2021-06-04T16:31:00Z</time>
      </trkpt>
      <trkpt lat="49.02608" lon="7.83531">
        <ele>322</ele>
        <time>2021-06-04T16:31:39Z</time>
      </trkpt>
      <trkpt lat="49.02608" lon="7.83515">
        <ele>321</ele>
        <time>2021-06-04T16:31:53Z</time>
      </trkpt>
      <trkpt lat="49.02601" lon="7.83505">
        <ele>322</ele>
        <time>2021-06-04T16:32:06Z</time>
      </trkpt>
      <trkpt lat="49.02589" lon="7.83467">
        <ele>322</ele>
        <time>2021-06-04T16:32:43Z</time>
      </trkpt>
      <trkpt lat="49.02595" lon="7.83378">
        <ele>313</ele>
        <time>2021-06-04T16:34:01Z</time>
      </trkpt>
      <trkpt lat="49.02593" lon="7.83354">
        <ele>311</ele>
        <time>2021-06-04T16:34:22Z</time>
      </trkpt>
      <trkpt lat="49.02596" lon="7.83326">
        <ele>308</ele>
        <time>2021-06-04T16:34:47Z</time>
      </trkpt>
      <trkpt lat="49.02595" lon="7.83309">
        <ele>306</ele>
        <time>2021-06-04T16:35:02Z</time>
      </trkpt>
      <trkpt lat="49.02602" lon="7.83281">
        <ele>303</ele>
        <time>2021-06-04T16:35:28Z</time>
      </trkpt>
      <trkpt lat="49.02601" lon="7.83238">
        <ele>299</ele>
        <time>2021-06-04T16:36:06Z</time>
      </trkpt>
      <trkpt lat="49.02592" lon="7.83206">
        <ele>298</ele>
        <time>2021-06-04T16:36:36Z</time>
      </trkpt>
      <trkpt lat="49.02589" lon="7.83178">
        <ele>296</ele>
        <time>2021-06-04T16:37:01Z</time>
      </trkpt>
      <trkpt lat="49.02588" lon="7.83148">
        <ele>294</ele>
        <time>2021-06-04T16:37:28Z</time>
      </trkpt>
      <trkpt lat="49.0259" lon="7.83131">
        <ele>294</ele>
        <time>2021-06-04T16:37:43Z</time>
      </trkpt>
      <trkpt lat="49.02593" lon="7.83117">
        <ele>293</ele>
        <time>2021-06-04T16:37:56Z</time>
      </trkpt>
      <trkpt lat="49.02601" lon="7.83107">
        <ele>293</ele>
        <time>2021-06-04T16:38:09Z</time>
      </trkpt>
      <trkpt lat="49.02612" lon="7.83083">
        <ele>293</ele>
        <time>2021-06-04T16:38:35Z</time>
      </trkpt>
      <trkpt lat="49.02621" lon="7.83078">
        <ele>293</ele>
        <time>2021-06-04T16:38:48Z</time>
      </trkpt>
      <trkpt lat="49.02628" lon="7.83069">
        <ele>293</ele>
        <time>2021-06-04T16:39:00Z</time>
      </trkpt>
      <trkpt lat="49.02637" lon="7.83066">
        <ele>293</ele>
        <time>2021-06-04T16:39:12Z</time>
      </trkpt>
      <trkpt lat="49.02657" lon="7.83069">
        <ele>294</ele>
        <time>2021-06-04T16:39:39Z</time>
      </trkpt>
      <trkpt lat="49.02667" lon="7.83064">
        <ele>294</ele>
        <time>2021-06-04T16:39:53Z</time>
      </trkpt>
      <trkpt lat="49.02695" lon="7.83044">
        <ele>292</ele>
        <time>2021-06-04T16:40:34Z</time>
      </trkpt>
      <trkpt lat="49.02711" lon="7.83024">
        <ele>291</ele>
        <time>2021-06-04T16:41:02Z</time>
      </trkpt>
      <trkpt lat="49.02723" lon="7.82977">
        <ele>287</ele>
        <time>2021-06-04T16:41:46Z</time>
      </trkpt>
      <trkpt lat="49.02735" lon="7.82834">
        <ele>273</ele>
        <time>2021-06-04T16:43:52Z</time>
      </trkpt>
      <trkpt lat="49.02753" lon="7.82738">
        <ele>266</ele>
        <time>2021-06-04T16:45:20Z</time>
      </trkpt>
      <trkpt lat="49.02758" lon="7.82723">
        <ele>265</ele>
        <time>2021-06-04T16:45:34Z</time>
      </trkpt>
      <trkpt lat="49.02761" lon="7.82694">
        <ele>264</ele>
        <time>2021-06-04T16:46:00Z</time>
      </trkpt>
      <trkpt lat="49.02774" lon="7.82649">
        <ele>261</ele>
        <time>2021-06-04T16:46:43Z</time>
      </trkpt>
      <trkpt lat="49.02776" lon="7.82617">
        <ele>259</ele>
        <time>2021-06-04T16:47:11Z</time>
      </trkpt>
      <trkpt lat="49.02795" lon="7.82581">
        <ele>257</ele>
        <time>2021-06-04T16:47:52Z</time>
      </trkpt>
      <trkpt lat="49.02796" lon="7.82567">
        <ele>257</ele>
        <time>2021-06-04T16:48:04Z</time>
      </trkpt>
      <trkpt lat="49.02803" lon="7.82557">
        <ele>257</ele>
        <time>2021-06-04T16:48:17Z</time>
      </trkpt>
      <trkpt lat="49.02812" lon="7.82566">
        <ele>257</ele>
        <time>2021-06-04T16:48:31Z</time>
      </trkpt>
      <trkpt lat="49.02828" lon="7.82589">
        <ele>257</ele>
        <time>2021-06-04T16:49:00Z</time>
      </trkpt>
      <trkpt lat="49.02849" lon="7.826">
        <ele>259</ele>
        <time>2021-06-04T16:49:30Z</time>
      </trkpt>
      <trkpt lat="49.02868" lon="7.826">
        <ele>261</ele>
        <time>2021-06-04T16:49:55Z</time>
      </trkpt>
      <trkpt lat="49.02878" lon="7.82597">
        <ele>261</ele>
        <time>2021-06-04T16:50:09Z</time>
      </trkpt>
      <trkpt lat="49.02919" lon="7.82578">
        <ele>263</ele>
        <time>2021-06-04T16:51:06Z</time>
      </trkpt>
      <trkpt lat="49.02956" lon="7.82551">
        <ele>268</ele>
        <time>2021-06-04T16:52:01Z</time>
      </trkpt>
      <trkpt lat="49.02998" lon="7.82502">
        <ele>271</ele>
        <time>2021-06-04T16:53:12Z</time>
      </trkpt>
      <trkpt lat="49.03012" lon="7.82482">
        <ele>272</ele>
        <time>2021-06-04T16:53:37Z</time>
      </trkpt>
      <trkpt lat="49.03072" lon="7.82362">
        <ele>271</ele>
        <time>2021-06-04T16:55:49Z</time>
      </trkpt>
      <trkpt lat="49.0309" lon="7.82334">
        <ele>269</ele>
        <time>2021-06-04T16:56:23Z</time>
      </trkpt>
      <trkpt lat="49.03101" lon="7.82324">
        <ele>269</ele>
        <time>2021-06-04T16:56:41Z</time>
      </trkpt>
      <trkpt lat="49.03134" lon="7.82304">
        <ele>268</ele>
        <time>2021-06-04T16:57:28Z</time>
      </trkpt>
      <trkpt lat="49.03166" lon="7.82303">
        <ele>269</ele>
        <time>2021-06-04T16:58:11Z</time>
      </trkpt>
      <trkpt lat="49.03187" lon="7.82313">
        <ele>269</ele>
        <time>2021-06-04T16:58:40Z</time>
      </trkpt>
      <trkpt lat="49.03216" lon="7.82332">
        <ele>269</ele>
        <time>2021-06-04T16:59:22Z</time>
      </trkpt>
      <trkpt lat="49.03228" lon="7.82336">
        <ele>269</ele>
        <time>2021-06-04T16:59:39Z</time>
      </trkpt>
      <trkpt lat="49.03238" lon="7.82334">
        <ele>268</ele>
        <time>2021-06-04T16:59:52Z</time>
      </trkpt>
      <trkpt lat="49.0329" lon="7.82288">
        <ele>266</ele>
        <time>2021-06-04T17:01:12Z</time>
      </trkpt>
      <trkpt lat="49.03342" lon="7.82258">
        <ele>266</ele>
        <time>2021-06-04T17:02:26Z</time>
      </trkpt>
      <trkpt lat="49.03358" lon="7.82242">
        <ele>268</ele>
        <time>2021-06-04T17:02:52Z</time>
      </trkpt>
      <trkpt lat="49.03371" lon="7.8222">
        <ele>270</ele>
        <time>2021-06-04T17:03:18Z</time>
      </trkpt>
      <trkpt lat="49.0338" lon="7.82211">
        <ele>271</ele>
        <time>2021-06-04T17:03:32Z</time>
      </trkpt>
      <trkpt lat="49.03399" lon="7.82201">
        <ele>272</ele>
        <time>2021-06-04T17:03:59Z</time>
      </trkpt>
      <trkpt lat="49.03415" lon="7.82187">
        <ele>272</ele>
        <time>2021-06-04T17:04:24Z</time>
      </trkpt>
      <trkpt lat="49.03444" lon="7.82142">
        <ele>280</ele>
        <time>2021-06-04T17:05:19Z</time>
      </trkpt>
      <trkpt lat="49.03467" lon="7.82113">
        <ele>286</ele>
        <time>2021-06-04T17:05:59Z</time>
      </trkpt>
      <trkpt lat="49.03483" lon="7.82053">
        <ele>288</ele>
        <time>2021-06-04T17:06:55Z</time>
      </trkpt>
      <trkpt lat="49.03489" lon="7.82021">
        <ele>287</ele>
        <time>2021-06-04T17:07:24Z</time>
      </trkpt>
      <trkpt lat="49.03495" lon="7.82006">
        <ele>287</ele>
        <time>2021-06-04T17:07:40Z</time>
      </trkpt>
      <trkpt lat="49.03498" lon="7.81987">
        <ele>286</ele>
        <time>2021-06-04T17:07:57Z</time>
      </trkpt>
      <trkpt lat="49.0351" lon="7.81949">
        <ele>288</ele>
        <time>2021-06-04T17:08:34Z</time>
      </trkpt>
      <trkpt lat="49.03529" lon="7.8191">
        <ele>292</ele>
        <time>2021-06-04T17:09:16Z</time>
      </trkpt>
      <trkpt lat="49.03543" lon="7.81892">
        <ele>295</ele>
        <time>2021-06-04T17:09:41Z</time>
      </trkpt>
      <trkpt lat="49.03555" lon="7.81868">
        <ele>295</ele>
        <time>2021-06-04T17:10:07Z</time>
      </trkpt>
      <trkpt lat="49.03578" lon="7.81836">
        <ele>294</ele>
        <time>2021-06-04T17:10:49Z</time>
      </trkpt>
      <trkpt lat="49.03587" lon="7.81826">
        <ele>295</ele>
        <time>2021-06-04T17:11:04Z</time>
      </trkpt>
      <trkpt lat="49.03596" lon="7.81821">
        <ele>297</ele>
        <time>2021-06-04T17:11:16Z</time>
      </trkpt>
      <trkpt lat="49.03603" lon="7.81799">
        <ele>296</ele>
        <time>2021-06-04T17:11:38Z</time>
      </trkpt>
      <trkpt lat="49.03613" lon="7.81795">
        <ele>298</ele>
        <time>2021-06-04T17:11:52Z</time>
      </trkpt>
      <trkpt lat="49.03621" lon="7.81779">
        <ele>297</ele>
        <time>2021-06-04T17:12:09Z</time>
      </trkpt>
      <trkpt lat="49.0363" lon="7.8177">
        <ele>297</ele>
        <time>2021-06-04T17:12:24Z</time>
      </trkpt>
      <trkpt lat="49.03652" lon="7.81757">
        <ele>297</ele>
        <time>2021-06-04T17:12:55Z</time>
      </trkpt>
      <trkpt lat="49.0366" lon="7.81747">
        <ele>296</ele>
        <time>2021-06-04T17:13:09Z</time>
      </trkpt>
      <trkpt lat="49.03669" lon="7.81742">
        <ele>297</ele>
        <time>2021-06-04T17:13:22Z</time>
      </trkpt>
      <trkpt lat="49.03688" lon="7.81739">
        <ele>301</ele>
        <time>2021-06-04T17:13:47Z</time>
      </trkpt>
      <trkpt lat="49.03698" lon="7.81734">
        <ele>303</ele>
        <time>2021-06-04T17:14:01Z</time>
      </trkpt>
      <trkpt lat="49.03732" lon="7.8173">
        <ele>310</ele>
        <time>2021-06-04T17:14:47Z</time>
      </trkpt>
      <trkpt lat="49.03739" lon="7.8172">
        <ele>309</ele>
        <time>2021-06-04T17:14:59Z</time>
      </trkpt>
      <trkpt lat="49.03781" lon="7.81699">
        <ele>308</ele>
        <time>2021-06-04T17:15:58Z</time>
      </trkpt>
      <trkpt lat="49.0379" lon="7.81692">
        <ele>307</ele>
        <time>2021-06-04T17:16:12Z</time>
      </trkpt>
      <trkpt lat="49.03818" lon="7.8166">
        <ele>302</ele>
        <time>2021-06-04T17:16:59Z</time>
      </trkpt>
      <trkpt lat="49.03828" lon="7.81655">
        <ele>302</ele>
        <time>2021-06-04T17:17:13Z</time>
      </trkpt>
      <trkpt lat="49.03867" lon="7.81668">
        <ele>299</ele>
        <time>2021-06-04T17:18:06Z</time>
      </trkpt>
      <trkpt lat="49.03886" lon="7.81678">
        <ele>300</ele>
        <time>2021-06-04T17:18:33Z</time>
      </trkpt>
      <trkpt lat="49.03895" lon="7.81673">
        <ele>298</ele>
        <time>2021-06-04T17:18:45Z</time>
      </trkpt>
      <trkpt lat="49.03903" lon="7.81662">
        <ele>296</ele>
        <time>2021-06-04T17:19:00Z</time>
      </trkpt>
      <trkpt lat="49.03913" lon="7.81654">
        <ele>295</ele>
        <time>2021-06-04T17:19:15Z</time>
      </trkpt>
      <trkpt lat="49.03926" lon="7.81634">
        <ele>296</ele>
        <time>2021-06-04T17:19:40Z</time>
      </trkpt>
      <trkpt lat="49.03964" lon="7.81606">
        <ele>298</ele>
        <time>2021-06-04T17:20:36Z</time>
      </trkpt>
      <trkpt lat="49.04052" lon="7.81499">
        <ele>299</ele>
        <time>2021-06-04T17:23:06Z</time>
      </trkpt>
      <trkpt lat="49.0406" lon="7.81494">
        <ele>300</ele>
        <time>2021-06-04T17:23:18Z</time>
      </trkpt>
      <trkpt lat="49.04089" lon="7.81484">
        <ele>302</ele>
        <time>2021-06-04T17:23:57Z</time>
      </trkpt>
      <trkpt lat="49.04097" lon="7.81474">
        <ele>302</ele>
        <time>2021-06-04T17:24:11Z</time>
      </trkpt>
      <trkpt lat="49.04105" lon="7.81458">
        <ele>301</ele>
        <time>2021-06-04T17:24:29Z</time>
      </trkpt>
      <trkpt lat="49.04114" lon="7.81449">
        <ele>300</ele>
        <time>2021-06-04T17:24:43Z</time>
      </trkpt>
      <trkpt lat="49.04123" lon="7.81444">
        <ele>301</ele>
        <time>2021-06-04T17:24:56Z</time>
      </trkpt>
      <trkpt lat="49.04148" lon="7.81412">
        <ele>297</ele>
        <time>2021-06-04T17:25:39Z</time>
      </trkpt>
      <trkpt lat="49.04157" lon="7.81412">
        <ele>298</ele>
        <time>2021-06-04T17:25:51Z</time>
      </trkpt>
      <trkpt lat="49.04168" lon="7.81407">
        <ele>299</ele>
        <time>2021-06-04T17:26:07Z</time>
      </trkpt>
      <trkpt lat="49.04176" lon="7.81398">
        <ele>300</ele>
        <time>2021-06-04T17:26:20Z</time>
      </trkpt>
      <trkpt lat="49.04197" lon="7.81399">
        <ele>300</ele>
        <time>2021-06-04T17:26:48Z</time>
      </trkpt>
      <trkpt lat="49.04205" lon="7.8139">
        <ele>301</ele>
        <time>2021-06-04T17:27:01Z</time>
      </trkpt>
      <trkpt lat="49.04245" lon="7.81388">
        <ele>302</ele>
        <time>2021-06-04T17:27:55Z</time>
      </trkpt>
      <trkpt lat="49.04274" lon="7.81394">
        <ele>301</ele>
        <time>2021-06-04T17:28:34Z</time>
      </trkpt>
      <trkpt lat="49.04306" lon="7.81386">
        <ele>301</ele>
        <time>2021-06-04T17:29:17Z</time>
      </trkpt>
      <trkpt lat="49.04288" lon="7.8137">
        <ele>302</ele>
        <time>2021-06-04T17:29:45Z</time>
      </trkpt>
      <trkpt lat="49.04292" lon="7.81357">
        <ele>303</ele>
        <time>2021-06-04T17:29:57Z</time>
      </trkpt>
      <trkpt lat="49.04301" lon="7.81348">
        <ele>304</ele>
        <time>2021-06-04T17:30:12Z</time>
      </trkpt>
      <trkpt lat="49.0438" lon="7.81337">
        <ele>304</ele>
        <time>2021-06-04T17:31:58Z</time>
      </trkpt>
      <trkpt lat="49.04397" lon="7.81325">
        <ele>308</ele>
        <time>2021-06-04T17:32:23Z</time>
      </trkpt>
      <trkpt lat="49.04435" lon="7.81326">
        <ele>309</ele>
        <time>2021-06-04T17:33:13Z</time>
      </trkpt>
      <trkpt lat="49.04475" lon="7.81335">
        <ele>310</ele>
        <time>2021-06-04T17:34:07Z</time>
      </trkpt>
      <trkpt lat="49.04496" lon="7.81328">
        <ele>313</ele>
        <time>2021-06-04T17:34:36Z</time>
      </trkpt>
      <trkpt lat="49.04525" lon="7.81336">
        <ele>311</ele>
        <time>2021-06-04T17:35:15Z</time>
      </trkpt>
      <trkpt lat="49.04536" lon="7.81336">
        <ele>311</ele>
        <time>2021-06-04T17:35:30Z</time>
      </trkpt>
      <trkpt lat="49.04587" lon="7.81316">
        <ele>312</ele>
        <time>2021-06-04T17:36:40Z</time>
      </trkpt>
      <trkpt lat="49.04606" lon="7.813">
        <ele>314</ele>
        <time>2021-06-04T17:37:09Z</time>
      </trkpt>
      <trkpt lat="49.04639" lon="7.81283">
        <ele>316</ele>
        <time>2021-06-04T17:37:56Z</time>
      </trkpt>
      <trkpt lat="49.04694" lon="7.81293">
        <ele>316</ele>
        <time>2021-06-04T17:39:10Z</time>
      </trkpt>
      <trkpt lat="49.04735" lon="7.81291">
        <ele>317</ele>
        <time>2021-06-04T17:40:04Z</time>
      </trkpt>
      <trkpt lat="49.04746" lon="7.81288">
        <ele>318</ele>
        <time>2021-06-04T17:40:19Z</time>
      </trkpt>
      <trkpt lat="49.04774" lon="7.81274">
        <ele>320</ele>
        <time>2021-06-04T17:40:59Z</time>
      </trkpt>
      <trkpt lat="49.04841" lon="7.8125">
        <ele>323</ele>
        <time>2021-06-04T17:42:30Z</time>
      </trkpt>
      <trkpt lat="49.04859" lon="7.81238">
        <ele>324</ele>
        <time>2021-06-04T17:42:57Z</time>
      </trkpt>
      <trkpt lat="49.04876" lon="7.81221">
        <ele>326</ele>
        <time>2021-06-04T17:43:24Z</time>
      </trkpt>
      <trkpt lat="49.04903" lon="7.812">
        <ele>326</ele>
        <time>2021-06-04T17:44:04Z</time>
      </trkpt>
      <trkpt lat="49.04909" lon="7.81188">
        <ele>328</ele>
        <time>2021-06-04T17:44:17Z</time>
      </trkpt>
      <trkpt lat="49.04915" lon="7.81143">
        <ele>337</ele>
        <time>2021-06-04T17:44:58Z</time>
      </trkpt>
      <trkpt lat="49.04946" lon="7.81083">
        <ele>342</ele>
        <time>2021-06-04T17:46:04Z</time>
      </trkpt>
      <trkpt lat="49.04955" lon="7.81043">
        <ele>345</ele>
        <time>2021-06-04T17:46:41Z</time>
      </trkpt>
      <trkpt lat="49.04954" lon="7.81057">
        <ele>343</ele>
        <time>2021-06-04T17:46:54Z</time>
      </trkpt>
      <trkpt lat="49.04966" lon="7.80997">
        <ele>349</ele>
        <time>2021-06-04T17:47:49Z</time>
      </trkpt>
      <trkpt lat="49.04969" lon="7.80922">
        <ele>362</ele>
        <time>2021-06-04T17:48:54Z</time>
      </trkpt>
      <trkpt lat="49.04974" lon="7.8091">
        <ele>362</ele>
        <time>2021-06-04T17:49:07Z</time>
      </trkpt>
      <trkpt lat="49.04982" lon="7.80899">
        <ele>361</ele>
        <time>2021-06-04T17:49:21Z</time>
      </trkpt>
      <trkpt lat="49.0501" lon="7.80879">
        <ele>355</ele>
        <time>2021-06-04T17:50:02Z</time>
      </trkpt>
      <trkpt lat="49.05018" lon="7.80869">
        <ele>355</ele>
        <time>2021-06-04T17:50:16Z</time>
      </trkpt>
      <trkpt lat="49.05031" lon="7.80849">
        <ele>354</ele>
        <time>2021-06-04T17:50:41Z</time>
      </trkpt>
      <trkpt lat="49.05041" lon="7.80822">
        <ele>353</ele>
        <time>2021-06-04T17:51:08Z</time>
      </trkpt>
      <trkpt lat="49.05044" lon="7.80779">
        <ele>357</ele>
        <time>2021-06-04T17:51:46Z</time>
      </trkpt>
      <trkpt lat="49.0504" lon="7.80751">
        <ele>361</ele>
        <time>2021-06-04T17:52:11Z</time>
      </trkpt>
      <trkpt lat="49.05021" lon="7.8067">
        <ele>374</ele>
        <time>2021-06-04T17:53:26Z</time>
      </trkpt>
      <trkpt lat="49.05019" lon="7.80642">
        <ele>375</ele>
        <time>2021-06-04T17:53:51Z</time>
      </trkpt>
      <trkpt lat="49.05015" lon="7.80628">
        <ele>376</ele>
        <time>2021-06-04T17:54:04Z</time>
      </trkpt>
      <trkpt lat="49.05011" lon="7.80585">
        <ele>378</ele>
        <time>2021-06-04T17:54:42Z</time>
      </trkpt>
      <trkpt lat="49.05013" lon="7.80541">
        <ele>382</ele>
        <time>2021-06-04T17:55:21Z</time>
      </trkpt>
      <trkpt lat="49.05017" lon="7.80528">
        <ele>382</ele>
        <time>2021-06-04T17:55:33Z</time>
      </trkpt>
      <trkpt lat="49.05025" lon="7.80521">
        <ele>382</ele>
        <time>2021-06-04T17:55:45Z</time>
      </trkpt>
      <trkpt lat="49.05042" lon="7.80534">
        <ele>377</ele>
        <time>2021-06-04T17:56:11Z</time>
      </trkpt>
      <trkpt lat="49.05051" lon="7.80534">
        <ele>376</ele>
        <time>2021-06-04T17:56:23Z</time>
      </trkpt>
      <trkpt lat="49.05057" lon="7.80524">
        <ele>376</ele>
        <time>2021-06-04T17:56:35Z</time>
      </trkpt>
      <trkpt lat="49.0506" lon="7.80511">
        <ele>377</ele>
        <time>2021-06-04T17:56:47Z</time>
      </trkpt>
      <trkpt lat="49.05054" lon="7.80468">
        <ele>384</ele>
        <time>2021-06-04T17:57:25Z</time>
      </trkpt>
      <trkpt lat="49.05055" lon="7.80439">
        <ele>388</ele>
        <time>2021-06-04T17:57:51Z</time>
      </trkpt>
      <trkpt lat="49.0507" lon="7.804">
        <ele>390</ele>
        <time>2021-06-04T17:58:30Z</time>
      </trkpt>
      <trkpt lat="49.05087" lon="7.80366">
        <ele>389</ele>
        <time>2021-06-04T17:59:08Z</time>
      </trkpt>
      <trkpt lat="49.05099" lon="7.80246">
        <ele>395</ele>
        <time>2021-06-04T18:00:54Z</time>
      </trkpt>
      <trkpt lat="49.05099" lon="7.80214">
        <ele>395</ele>
        <time>2021-06-04T18:01:22Z</time>
      </trkpt>
      <trkpt lat="49.0509" lon="7.80138">
        <ele>399</ele>
        <time>2021-06-04T18:02:29Z</time>
      </trkpt>
      <trkpt lat="49.05091" lon="7.80089">
        <ele>398</ele>
        <time>2021-06-04T18:03:12Z</time>
      </trkpt>
      <trkpt lat="49.05097" lon="7.80061">
        <ele>398</ele>
        <time>2021-06-04T18:03:38Z</time>
      </trkpt>
      <trkpt lat="49.0512" lon="7.80035">
        <ele>395</ele>
        <time>2021-06-04T18:04:16Z</time>
      </trkpt>
      <trkpt lat="49.0515" lon="7.80043">
        <ele>384</ele>
        <time>2021-06-04T18:04:57Z</time>
      </trkpt>
      <trkpt lat="49.05179" lon="7.80059">
        <ele>371</ele>
        <time>2021-06-04T18:05:38Z</time>
      </trkpt>
      <trkpt lat="49.0519" lon="7.80058">
        <ele>370</ele>
        <time>2021-06-04T18:05:53Z</time>
      </trkpt>
      <trkpt lat="49.05202" lon="7.80052">
        <ele>369</ele>
        <time>2021-06-04T18:06:09Z</time>
      </trkpt>
      <trkpt lat="49.05223" lon="7.80034">
        <ele>370</ele>
        <time>2021-06-04T18:06:42Z</time>
      </trkpt>
      <trkpt lat="49.05233" lon="7.80022">
        <ele>370</ele>
        <time>2021-06-04T18:06:59Z</time>
      </trkpt>
      <trkpt lat="49.05259" lon="7.79989">
        <ele>371</ele>
        <time>2021-06-04T18:07:44Z</time>
      </trkpt>
      <trkpt lat="49.05283" lon="7.79949">
        <ele>371</ele>
        <time>2021-06-04T18:08:31Z</time>
      </trkpt>
      <trkpt lat="49.05291" lon="7.7994">
        <ele>370</ele>
        <time>2021-06-04T18:08:44Z</time>
      </trkpt>
      <trkpt lat="49.05323" lon="7.79919">
        <ele>362</ele>
        <time>2021-06-04T18:09:31Z</time>
      </trkpt>
      <trkpt lat="49.05347" lon="7.79908">
        <ele>358</ele>
        <time>2021-06-04T18:10:04Z</time>
      </trkpt>
      <trkpt lat="49.05373" lon="7.79878">
        <ele>357</ele>
        <time>2021-06-04T18:10:48Z</time>
      </trkpt>
      <trkpt lat="49.05389" lon="7.79853">
        <ele>355</ele>
        <time>2021-06-04T18:11:18Z</time>
      </trkpt>
      <trkpt lat="49.05399" lon="7.7976">
        <ele>352</ele>
        <time>2021-06-04T18:12:41Z</time>
      </trkpt>
      <trkpt lat="49.05398" lon="7.79714">
        <ele>352</ele>
        <time>2021-06-04T18:13:21Z</time>
      </trkpt>
      <trkpt lat="49.05394" lon="7.7967">
        <ele>352</ele>
        <time>2021-06-04T18:14:00Z</time>
      </trkpt>
      <trkpt lat="49.05379" lon="7.79629">
        <ele>354</ele>
        <time>2021-06-04T18:14:41Z</time>
      </trkpt>
      <trkpt lat="49.05372" lon="7.79618">
        <ele>356</ele>
        <time>2021-06-04T18:14:54Z</time>
      </trkpt>
      <trkpt lat="49.05367" lon="7.79604">
        <ele>357</ele>
        <time>2021-06-04T18:15:08Z</time>
      </trkpt>
      <trkpt lat="49.05357" lon="7.79556">
        <ele>356</ele>
        <time>2021-06-04T18:15:52Z</time>
      </trkpt>
      <trkpt lat="49.05354" lon="7.79505">
        <ele>353</ele>
        <time>2021-06-04T18:16:37Z</time>
      </trkpt>
      <trkpt lat="49.0533" lon="7.79446">
        <ele>353</ele>
        <time>2021-06-04T18:17:38Z</time>
      </trkpt>
      <trkpt lat="49.05329" lon="7.79416">
        <ele>350</ele>
        <time>2021-06-04T18:18:04Z</time>
      </trkpt>
      <trkpt lat="49.05323" lon="7.79405">
        <ele>350</ele>
        <time>2021-06-04T18:18:17Z</time>
      </trkpt>
      <trkpt lat="49.05313" lon="7.79401">
        <ele>351</ele>
        <time>2021-06-04T18:18:30Z</time>
      </trkpt>
      <trkpt lat="49.05304" lon="7.79375">
        <ele>349</ele>
        <time>2021-06-04T18:18:56Z</time>
      </trkpt>
    </trkseg>
  </trk>
</gpx>